sensor_id;sensor_type;location;lat;lon;timestamp;pressure;altitude;pressure_sealevel;temperature;humidity
13593;BME280;6867;50.998;4.250;2023-05-01T00:00:11;101365.94;;;16.14;59.08
13593;BME280;6867;50.998;4.250;2023-05-01T00:02:40;101358.13;;;16.06;59.43
13593;BME280;6867;50.998;4.250;2023-05-01T00:05:07;101357.97;;;16.01;59.18
13593;BME280;6867;50.998;4.250;2023-05-01T00:07:34;101354.66;;;15.99;59.21
13593;BME280;6867;50.998;4.250;2023-05-01T00:10:01;101361.16;;;15.98;59.44
13593;BME280;6867;50.998;4.250;2023-05-01T00:12:27;101364.63;;;15.86;59.69
13593;BME280;6867;50.998;4.250;2023-05-01T00:14:55;101355.28;;;15.82;60.14
13593;BME280;6867;50.998;4.250;2023-05-01T00:17:22;101355.22;;;15.89;60.22
13593;BME280;6867;50.998;4.250;2023-05-01T00:19:51;101353.72;;;15.93;60.08
13593;BME280;6867;50.998;4.250;2023-05-01T00:22:18;101339.19;;;15.87;60.00
13593;BME280;6867;50.998;4.250;2023-05-01T00:24:45;101329.97;;;15.77;59.66
13593;BME280;6867;50.998;4.250;2023-05-01T00:27:13;101336.25;;;15.89;59.89
13593;BME280;6867;50.998;4.250;2023-05-01T00:29:40;101330.84;;;15.89;60.11
13593;BME280;6867;50.998;4.250;2023-05-01T00:32:07;101321.03;;;15.88;59.51
13593;BME280;6867;50.998;4.250;2023-05-01T00:34:34;101300.44;;;15.87;59.39
13593;BME280;6867;50.998;4.250;2023-05-01T00:37:02;101298.47;;;15.94;59.24
13593;BME280;6867;50.998;4.250;2023-05-01T00:39:29;101309.69;;;15.79;59.79
13593;BME280;6867;50.998;4.250;2023-05-01T00:41:55;101309.13;;;15.77;59.77
13593;BME280;6867;50.998;4.250;2023-05-01T00:44:22;101318.66;;;15.80;60.24
13593;BME280;6867;50.998;4.250;2023-05-01T00:46:49;101331.59;;;15.78;60.87
13593;BME280;6867;50.998;4.250;2023-05-01T00:49:15;101327.84;;;15.79;60.98
13593;BME280;6867;50.998;4.250;2023-05-01T00:51:42;101326.25;;;15.71;61.23
13593;BME280;6867;50.998;4.250;2023-05-01T00:54:13;101345.00;;;15.73;62.17
13593;BME280;6867;50.998;4.250;2023-05-01T00:56:39;101344.88;;;15.67;62.49
13593;BME280;6867;50.998;4.250;2023-05-01T00:59:07;101329.59;;;15.73;62.26
13593;BME280;6867;50.998;4.250;2023-05-01T01:01:34;101341.75;;;15.64;62.73
13593;BME280;6867;50.998;4.250;2023-05-01T01:04:01;101324.25;;;15.66;62.15
13593;BME280;6867;50.998;4.250;2023-05-01T01:06:32;101307.78;;;15.68;62.38
13593;BME280;6867;50.998;4.250;2023-05-01T01:09:12;101307.16;;;15.66;62.25
13593;BME280;6867;50.998;4.250;2023-05-01T01:11:52;101315.19;;;15.54;62.54
13593;BME280;6867;50.998;4.250;2023-05-01T01:14:26;101311.06;;;15.52;62.79
13593;BME280;6867;50.998;4.250;2023-05-01T01:17:03;101296.03;;;15.56;62.48
13593;BME280;6867;50.998;4.250;2023-05-01T01:19:54;101297.31;;;15.53;62.71
13593;BME280;6867;50.998;4.250;2023-05-01T01:22:26;101287.16;;;15.49;62.63
13593;BME280;6867;50.998;4.250;2023-05-01T01:25:08;101282.19;;;15.45;62.70
13593;BME280;6867;50.998;4.250;2023-05-01T01:28:03;101283.25;;;15.44;62.70
13593;BME280;6867;50.998;4.250;2023-05-01T01:30:46;101278.41;;;15.47;63.12
13593;BME280;6867;50.998;4.250;2023-05-01T01:33:54;101276.78;;;15.45;62.97
13593;BME280;6867;50.998;4.250;2023-05-01T01:36:33;101267.28;;;15.55;62.69
13593;BME280;6867;50.998;4.250;2023-05-01T01:39:09;101268.34;;;15.54;62.65
13593;BME280;6867;50.998;4.250;2023-05-01T01:41:39;101267.38;;;15.48;62.83
13593;BME280;6867;50.998;4.250;2023-05-01T01:44:09;101266.31;;;15.49;63.36
13593;BME280;6867;50.998;4.250;2023-05-01T01:46:40;101280.34;;;15.28;63.88
13593;BME280;6867;50.998;4.250;2023-05-01T01:49:14;101281.41;;;15.27;64.30
13593;BME280;6867;50.998;4.250;2023-05-01T01:51:43;101276.81;;;15.27;64.69
13593;BME280;6867;50.998;4.250;2023-05-01T01:54:12;101268.06;;;15.25;64.26
13593;BME280;6867;50.998;4.250;2023-05-01T01:56:41;101263.44;;;15.14;64.63
13593;BME280;6867;50.998;4.250;2023-05-01T01:59:10;101284.31;;;15.07;65.24
13593;BME280;6867;50.998;4.250;2023-05-01T02:01:38;101299.41;;;14.96;66.58
13593;BME280;6867;50.998;4.250;2023-05-01T02:04:07;101306.78;;;14.89;66.43
13593;BME280;6867;50.998;4.250;2023-05-01T02:06:37;101272.72;;;15.00;65.99
13593;BME280;6867;50.998;4.250;2023-05-01T02:09:05;101269.00;;;15.01;65.75
13593;BME280;6867;50.998;4.250;2023-05-01T02:11:33;101254.41;;;15.02;65.85
13593;BME280;6867;50.998;4.250;2023-05-01T02:14:01;101248.69;;;15.10;65.42
13593;BME280;6867;50.998;4.250;2023-05-01T02:16:31;101255.22;;;15.02;65.77
13593;BME280;6867;50.998;4.250;2023-05-01T02:19:00;101253.88;;;14.93;65.97
13593;BME280;6867;50.998;4.250;2023-05-01T02:21:28;101259.69;;;14.97;66.38
13593;BME280;6867;50.998;4.250;2023-05-01T02:23:59;101244.09;;;14.92;66.11
13593;BME280;6867;50.998;4.250;2023-05-01T02:26:27;101242.81;;;14.94;66.06
13593;BME280;6867;50.998;4.250;2023-05-01T02:28:55;101232.91;;;14.88;66.10
13593;BME280;6867;50.998;4.250;2023-05-01T02:31:22;101234.63;;;14.83;66.10
13593;BME280;6867;50.998;4.250;2023-05-01T02:33:49;101226.00;;;14.92;66.33
13593;BME280;6867;50.998;4.250;2023-05-01T02:36:16;101222.78;;;15.02;65.35
13593;BME280;6867;50.998;4.250;2023-05-01T02:38:42;101215.91;;;15.00;65.77
13593;BME280;6867;50.998;4.250;2023-05-01T02:41:14;101218.03;;;14.98;65.72
13593;BME280;6867;50.998;4.250;2023-05-01T02:43:42;101219.44;;;15.00;65.68
13593;BME280;6867;50.998;4.250;2023-05-01T02:46:11;101214.72;;;14.95;66.24
13593;BME280;6867;50.998;4.250;2023-05-01T02:48:39;101214.78;;;15.07;65.61
13593;BME280;6867;50.998;4.250;2023-05-01T02:51:08;101213.34;;;15.05;66.33
13593;BME280;6867;50.998;4.250;2023-05-01T02:53:35;101216.28;;;15.03;66.22
13593;BME280;6867;50.998;4.250;2023-05-01T02:56:04;101210.13;;;14.96;66.13
13593;BME280;6867;50.998;4.250;2023-05-01T02:58:33;101198.19;;;15.04;65.79
13593;BME280;6867;50.998;4.250;2023-05-01T03:01:00;101209.22;;;14.84;66.70
13593;BME280;6867;50.998;4.250;2023-05-01T03:03:27;101205.94;;;14.82;66.67
13593;BME280;6867;50.998;4.250;2023-05-01T03:05:53;101208.13;;;14.73;66.59
13593;BME280;6867;50.998;4.250;2023-05-01T03:08:20;101197.72;;;14.70;67.13
13593;BME280;6867;50.998;4.250;2023-05-01T03:10:46;101201.94;;;14.66;67.26
13593;BME280;6867;50.998;4.250;2023-05-01T03:13:13;101202.47;;;14.56;66.92
13593;BME280;6867;50.998;4.250;2023-05-01T03:15:43;101197.66;;;14.58;67.40
13593;BME280;6867;50.998;4.250;2023-05-01T03:18:10;101199.81;;;14.50;66.96
13593;BME280;6867;50.998;4.250;2023-05-01T03:20:36;101209.47;;;14.39;67.89
13593;BME280;6867;50.998;4.250;2023-05-01T03:23:03;101202.94;;;14.47;67.81
13593;BME280;6867;50.998;4.250;2023-05-01T03:25:30;101193.78;;;14.48;67.16
13593;BME280;6867;50.998;4.250;2023-05-01T03:27:57;101196.50;;;14.48;67.81
13593;BME280;6867;50.998;4.250;2023-05-01T03:30:24;101190.94;;;14.42;67.88
13593;BME280;6867;50.998;4.250;2023-05-01T03:32:52;101197.31;;;14.48;68.17
13593;BME280;6867;50.998;4.250;2023-05-01T03:35:19;101198.16;;;14.49;68.00
13593;BME280;6867;50.998;4.250;2023-05-01T03:37:46;101193.16;;;14.45;67.90
13593;BME280;6867;50.998;4.250;2023-05-01T03:40:12;101194.00;;;14.46;68.55
13593;BME280;6867;50.998;4.250;2023-05-01T03:42:39;101195.41;;;14.55;67.69
13593;BME280;6867;50.998;4.250;2023-05-01T03:45:07;101191.53;;;14.44;68.41
13593;BME280;6867;50.998;4.250;2023-05-01T03:47:34;101180.94;;;14.43;67.91
13593;BME280;6867;50.998;4.250;2023-05-01T03:50:02;101193.16;;;14.45;67.96
13593;BME280;6867;50.998;4.250;2023-05-01T03:52:29;101193.16;;;14.45;68.15
13593;BME280;6867;50.998;4.250;2023-05-01T03:54:56;101193.63;;;14.42;68.20
13593;BME280;6867;50.998;4.250;2023-05-01T03:57:22;101197.16;;;14.43;68.29
13593;BME280;6867;50.998;4.250;2023-05-01T03:59:49;101189.88;;;14.43;68.33
13593;BME280;6867;50.998;4.250;2023-05-01T04:02:16;101199.03;;;14.42;68.75
13593;BME280;6867;50.998;4.250;2023-05-01T04:04:42;101203.25;;;14.38;68.74
13593;BME280;6867;50.998;4.250;2023-05-01T04:07:11;101205.16;;;14.31;69.08
13593;BME280;6867;50.998;4.250;2023-05-01T04:09:38;101208.75;;;14.25;69.17
13593;BME280;6867;50.998;4.250;2023-05-01T04:12:05;101194.75;;;14.35;68.92
13593;BME280;6867;50.998;4.250;2023-05-01T04:14:31;101183.03;;;14.41;68.75
13593;BME280;6867;50.998;4.250;2023-05-01T04:16:58;101195.41;;;14.30;69.49
13593;BME280;6867;50.998;4.250;2023-05-01T04:19:25;101190.88;;;14.24;69.44
13593;BME280;6867;50.998;4.250;2023-05-01T04:21:52;101196.91;;;14.26;69.43
13593;BME280;6867;50.998;4.250;2023-05-01T04:24:21;101182.94;;;14.29;69.33
13593;BME280;6867;50.998;4.250;2023-05-01T04:26:47;101182.50;;;14.32;69.24
13593;BME280;6867;50.998;4.250;2023-05-01T04:29:14;101180.41;;;14.34;69.24
13593;BME280;6867;50.998;4.250;2023-05-01T04:31:41;101173.72;;;14.37;69.17
13593;BME280;6867;50.998;4.250;2023-05-01T04:34:07;101181.00;;;14.36;68.94
13593;BME280;6867;50.998;4.250;2023-05-01T04:36:34;101179.94;;;14.37;68.78
13593;BME280;6867;50.998;4.250;2023-05-01T04:39:01;101177.91;;;14.33;69.19
13593;BME280;6867;50.998;4.250;2023-05-01T04:41:29;101190.31;;;14.40;69.53
13593;BME280;6867;50.998;4.250;2023-05-01T04:43:56;101187.03;;;14.38;69.61
13593;BME280;6867;50.998;4.250;2023-05-01T04:46:23;101193.53;;;14.31;69.95
13593;BME280;6867;50.998;4.250;2023-05-01T04:48:49;101192.44;;;14.38;69.56
13593;BME280;6867;50.998;4.250;2023-05-01T04:51:16;101184.47;;;14.43;69.00
13593;BME280;6867;50.998;4.250;2023-05-01T04:53:44;101182.59;;;14.44;69.02
13593;BME280;6867;50.998;4.250;2023-05-01T04:56:10;101176.94;;;14.45;69.01
13593;BME280;6867;50.998;4.250;2023-05-01T04:58:38;101184.13;;;14.58;69.37
13593;BME280;6867;50.998;4.250;2023-05-01T05:01:05;101183.31;;;14.58;69.05
13593;BME280;6867;50.998;4.250;2023-05-01T05:03:32;101179.09;;;14.62;68.66
13593;BME280;6867;50.998;4.250;2023-05-01T05:05:58;101177.75;;;14.71;68.68
13593;BME280;6867;50.998;4.250;2023-05-01T05:08:25;101180.63;;;14.76;68.54
13593;BME280;6867;50.998;4.250;2023-05-01T05:10:56;101183.63;;;14.86;68.15
13593;BME280;6867;50.998;4.250;2023-05-01T05:13:23;101180.47;;;14.89;68.32
13593;BME280;6867;50.998;4.250;2023-05-01T05:15:51;101184.06;;;14.83;68.06
13593;BME280;6867;50.998;4.250;2023-05-01T05:18:18;101197.47;;;14.97;68.43
13593;BME280;6867;50.998;4.250;2023-05-01T05:20:45;101182.78;;;15.04;67.85
13593;BME280;6867;50.998;4.250;2023-05-01T05:23:12;101185.09;;;15.19;67.67
13593;BME280;6867;50.998;4.250;2023-05-01T05:25:38;101188.69;;;15.31;67.48
13593;BME280;6867;50.998;4.250;2023-05-01T05:28:05;101180.94;;;15.35;67.11
13593;BME280;6867;50.998;4.250;2023-05-01T05:30:32;101183.31;;;15.43;66.99
13593;BME280;6867;50.998;4.250;2023-05-01T05:33:00;101172.75;;;15.53;66.15
13593;BME280;6867;50.998;4.250;2023-05-01T05:35:27;101163.00;;;15.52;65.77
13593;BME280;6867;50.998;4.250;2023-05-01T05:37:54;101160.09;;;15.65;65.38
13593;BME280;6867;50.998;4.250;2023-05-01T05:40:21;101142.88;;;15.60;64.77
13593;BME280;6867;50.998;4.250;2023-05-01T05:42:47;101146.63;;;15.59;65.13
13593;BME280;6867;50.998;4.250;2023-05-01T05:45:14;101168.44;;;15.64;66.13
13593;BME280;6867;50.998;4.250;2023-05-01T05:47:41;101159.53;;;15.75;65.26
13593;BME280;6867;50.998;4.250;2023-05-01T05:50:09;101147.19;;;15.91;65.01
13593;BME280;6867;50.998;4.250;2023-05-01T05:52:36;101129.66;;;15.93;64.44
13593;BME280;6867;50.998;4.250;2023-05-01T05:55:03;101129.78;;;15.99;64.33
13593;BME280;6867;50.998;4.250;2023-05-01T05:57:30;101140.28;;;16.07;64.31
13593;BME280;6867;50.998;4.250;2023-05-01T05:59:57;101142.50;;;16.22;63.94
13593;BME280;6867;50.998;4.250;2023-05-01T06:02:23;101157.94;;;16.21;64.49
13593;BME280;6867;50.998;4.250;2023-05-01T06:04:50;101150.75;;;16.03;64.57
13593;BME280;6867;50.998;4.250;2023-05-01T06:07:18;101161.00;;;16.01;65.18
13593;BME280;6867;50.998;4.250;2023-05-01T06:09:47;101180.09;;;16.06;65.80
13593;BME280;6867;50.998;4.250;2023-05-01T06:12:13;101177.75;;;16.33;65.45
13593;BME280;6867;50.998;4.250;2023-05-01T06:14:40;101140.97;;;16.37;64.25
13593;BME280;6867;50.998;4.250;2023-05-01T06:17:07;101131.38;;;16.58;63.42
13593;BME280;6867;50.998;4.250;2023-05-01T06:19:34;101118.53;;;16.77;62.75
13593;BME280;6867;50.998;4.250;2023-05-01T06:22:01;101093.19;;;16.60;61.79
13593;BME280;6867;50.998;4.250;2023-05-01T06:24:29;101089.03;;;16.69;61.22
13593;BME280;6867;50.998;4.250;2023-05-01T06:26:55;101078.91;;;17.05;60.39
13593;BME280;6867;50.998;4.250;2023-05-01T06:29:22;101045.97;;;17.01;59.08
13593;BME280;6867;50.998;4.250;2023-05-01T06:31:49;101043.81;;;17.15;58.63
13593;BME280;6867;50.998;4.250;2023-05-01T06:34:15;101038.63;;;17.64;57.89
13593;BME280;6867;50.998;4.250;2023-05-01T06:36:42;101041.25;;;17.92;57.52
13593;BME280;6867;50.998;4.250;2023-05-01T06:39:08;101082.31;;;17.74;58.69
13593;BME280;6867;50.998;4.250;2023-05-01T06:41:37;101004.69;;;18.00;56.36
13593;BME280;6867;50.998;4.250;2023-05-01T06:44:04;101011.16;;;18.16;56.24
13593;BME280;6867;50.998;4.250;2023-05-01T06:46:30;101002.72;;;18.61;55.13
13593;BME280;6867;50.998;4.250;2023-05-01T06:48:57;100983.56;;;18.73;54.45
13593;BME280;6867;50.998;4.250;2023-05-01T06:51:24;100979.84;;;18.84;53.95
13593;BME280;6867;50.998;4.250;2023-05-01T06:53:50;100961.84;;;18.78;53.31
13593;BME280;6867;50.998;4.250;2023-05-01T06:56:17;100975.28;;;18.68;53.68
13593;BME280;6867;50.998;4.250;2023-05-01T06:58:45;100972.03;;;18.66;53.32
13593;BME280;6867;50.998;4.250;2023-05-01T07:01:11;100983.94;;;18.38;53.94
13593;BME280;6867;50.998;4.250;2023-05-01T07:03:38;100984.06;;;18.70;53.59
13593;BME280;6867;50.998;4.250;2023-05-01T07:06:05;100951.31;;;18.38;53.32
13593;BME280;6867;50.998;4.250;2023-05-01T07:08:32;101043.13;;;18.31;55.54
13593;BME280;6867;50.998;4.250;2023-05-01T07:10:58;101009.19;;;18.77;54.17
13593;BME280;6867;50.998;4.250;2023-05-01T07:13:25;100990.69;;;19.06;53.14
13593;BME280;6867;50.998;4.250;2023-05-01T07:15:53;100996.69;;;19.08;53.39
13593;BME280;6867;50.998;4.250;2023-05-01T07:18:20;101007.38;;;18.88;53.59
13593;BME280;6867;50.998;4.250;2023-05-01T07:20:47;101017.56;;;19.30;53.55
13593;BME280;6867;50.998;4.250;2023-05-01T07:23:14;100988.78;;;19.07;53.11
13593;BME280;6867;50.998;4.250;2023-05-01T07:25:42;101002.19;;;19.83;52.41
13593;BME280;6867;50.998;4.250;2023-05-01T07:28:09;101003.09;;;19.99;52.23
13593;BME280;6867;50.998;4.250;2023-05-01T07:30:36;100979.88;;;20.59;51.09
13593;BME280;6867;50.998;4.250;2023-05-01T07:33:05;100962.16;;;20.77;50.03
13593;BME280;6867;50.998;4.250;2023-05-01T07:35:31;100934.31;;;20.64;49.58
13593;BME280;6867;50.998;4.250;2023-05-01T07:37:58;100962.59;;;20.43;50.34
13593;BME280;6867;50.998;4.250;2023-05-01T07:40:25;100992.31;;;20.29;51.27
13593;BME280;6867;50.998;4.250;2023-05-01T07:42:51;100966.53;;;20.68;49.98
13593;BME280;6867;50.998;4.250;2023-05-01T07:45:18;100996.44;;;20.42;51.07
13593;BME280;6867;50.998;4.250;2023-05-01T07:47:45;100979.38;;;20.98;50.27
13593;BME280;6867;50.998;4.250;2023-05-01T07:50:13;100959.75;;;21.21;48.85
13593;BME280;6867;50.998;4.250;2023-05-01T07:52:40;100956.72;;;21.23;48.85
13593;BME280;6867;50.998;4.250;2023-05-01T07:55:07;101003.28;;;20.45;50.60
13593;BME280;6867;50.998;4.250;2023-05-01T07:57:34;100941.44;;;21.22;48.36
13593;BME280;6867;50.998;4.250;2023-05-01T08:00:01;100957.53;;;20.98;49.09
13593;BME280;6867;50.998;4.250;2023-05-01T08:02:28;100967.34;;;20.73;49.37
13593;BME280;6867;50.998;4.250;2023-05-01T08:04:55;100991.41;;;21.02;49.45
13593;BME280;6867;50.998;4.250;2023-05-01T08:07:23;101001.53;;;21.01;49.67
13593;BME280;6867;50.998;4.250;2023-05-01T08:09:50;101026.09;;;20.96;50.26
13593;BME280;6867;50.998;4.250;2023-05-01T08:12:16;101032.09;;;20.98;50.34
13593;BME280;6867;50.998;4.250;2023-05-01T08:14:43;101035.38;;;20.27;51.40
13593;BME280;6867;50.998;4.250;2023-05-01T08:17:10;101035.53;;;20.00;51.73
13593;BME280;6867;50.998;4.250;2023-05-01T08:19:36;101058.94;;;19.59;52.42
13593;BME280;6867;50.998;4.250;2023-05-01T08:22:03;101090.91;;;19.36;53.50
13593;BME280;6867;50.998;4.250;2023-05-01T08:24:31;101081.03;;;19.30;53.28
13593;BME280;6867;50.998;4.250;2023-05-01T08:26:58;101107.91;;;19.49;53.59
13593;BME280;6867;50.998;4.250;2023-05-01T08:29:25;101108.38;;;19.40;54.02
13593;BME280;6867;50.998;4.250;2023-05-01T08:31:51;101083.28;;;19.38;53.49
13593;BME280;6867;50.998;4.250;2023-05-01T08:34:18;101112.06;;;19.02;54.35
13593;BME280;6867;50.998;4.250;2023-05-01T08:36:45;101122.47;;;18.83;55.06
13593;BME280;6867;50.998;4.250;2023-05-01T08:39:12;101127.28;;;18.98;55.27
13593;BME280;6867;50.998;4.250;2023-05-01T08:41:44;101127.31;;;19.03;55.05
13593;BME280;6867;50.998;4.250;2023-05-01T08:44:12;101121.78;;;19.20;54.79
13593;BME280;6867;50.998;4.250;2023-05-01T08:46:44;101122.66;;;18.99;55.23
13593;BME280;6867;50.998;4.250;2023-05-01T08:49:14;101129.53;;;18.84;55.31
13593;BME280;6867;50.998;4.250;2023-05-01T08:51:44;101140.00;;;18.71;55.90
13593;BME280;6867;50.998;4.250;2023-05-01T08:54:11;101128.03;;;18.72;55.55
13593;BME280;6867;50.998;4.250;2023-05-01T08:56:40;101142.91;;;18.86;55.85
13593;BME280;6867;50.998;4.250;2023-05-01T08:59:08;101116.16;;;19.05;55.07
13593;BME280;6867;50.998;4.250;2023-05-01T09:01:36;101139.38;;;19.39;55.07
13593;BME280;6867;50.998;4.250;2023-05-01T09:04:05;101125.13;;;19.27;54.78
13593;BME280;6867;50.998;4.250;2023-05-01T09:06:33;101121.88;;;19.30;54.34
13593;BME280;6867;50.998;4.250;2023-05-01T09:09:00;101140.72;;;19.10;55.21
13593;BME280;6867;50.998;4.250;2023-05-01T09:11:27;101137.09;;;19.53;54.53
13593;BME280;6867;50.998;4.250;2023-05-01T09:13:56;101122.84;;;19.46;54.21
13593;BME280;6867;50.998;4.250;2023-05-01T09:16:22;101109.72;;;19.65;53.89
13593;BME280;6867;50.998;4.250;2023-05-01T09:18:49;101098.22;;;19.95;53.33
13593;BME280;6867;50.998;4.250;2023-05-01T09:21:16;101083.47;;;19.91;52.90
13593;BME280;6867;50.998;4.250;2023-05-01T09:23:43;101107.28;;;20.06;53.02
13593;BME280;6867;50.998;4.250;2023-05-01T09:26:09;101068.13;;;20.27;52.08
13593;BME280;6867;50.998;4.250;2023-05-01T09:28:40;101083.28;;;20.03;52.30
13593;BME280;6867;50.998;4.250;2023-05-01T09:31:21;101061.25;;;20.77;50.96
13593;BME280;6867;50.998;4.250;2023-05-01T09:33:53;101077.16;;;21.06;51.13
13593;BME280;6867;50.998;4.250;2023-05-01T09:36:20;101060.78;;;20.91;50.87
13593;BME280;6867;50.998;4.250;2023-05-01T09:38:48;101042.13;;;20.57;50.58
13593;BME280;6867;50.998;4.250;2023-05-01T09:41:14;101064.94;;;20.46;50.88
13593;BME280;6867;50.998;4.250;2023-05-01T09:43:48;101086.38;;;20.74;51.37
13593;BME280;6867;50.998;4.250;2023-05-01T09:46:15;101130.69;;;20.97;51.82
13593;BME280;6867;50.998;4.250;2023-05-01T09:48:55;101108.88;;;21.07;51.33
13593;BME280;6867;50.998;4.250;2023-05-01T09:51:24;101114.91;;;21.24;51.27
13593;BME280;6867;50.998;4.250;2023-05-01T09:53:53;101148.34;;;21.67;51.83
13593;BME280;6867;50.998;4.250;2023-05-01T09:56:20;101084.63;;;21.46;50.51
13593;BME280;6867;50.998;4.250;2023-05-01T09:58:48;101089.81;;;22.04;50.26
13593;BME280;6867;50.998;4.250;2023-05-01T10:01:15;101058.66;;;21.69;49.47
13593;BME280;6867;50.998;4.250;2023-05-01T10:03:42;101079.94;;;22.18;49.27
13593;BME280;6867;50.998;4.250;2023-05-01T10:06:10;100990.75;;;22.72;46.76
13593;BME280;6867;50.998;4.250;2023-05-01T10:08:47;100968.25;;;22.30;46.33
13593;BME280;6867;50.998;4.250;2023-05-01T10:11:14;100988.09;;;22.56;46.25
13593;BME280;6867;50.998;4.250;2023-05-01T10:13:41;100946.34;;;22.80;45.04
13593;BME280;6867;50.998;4.250;2023-05-01T10:16:27;100932.09;;;22.78;44.35
13593;BME280;6867;50.998;4.250;2023-05-01T10:18:54;100957.22;;;22.90;44.78
13593;BME280;6867;50.998;4.250;2023-05-01T10:21:22;100947.34;;;22.89;44.41
13593;BME280;6867;50.998;4.250;2023-05-01T10:23:50;100953.72;;;22.79;44.73
13593;BME280;6867;50.998;4.250;2023-05-01T10:26:17;100942.47;;;23.20;43.80
13593;BME280;6867;50.998;4.250;2023-05-01T10:28:47;100957.44;;;22.99;44.30
13593;BME280;6867;50.998;4.250;2023-05-01T10:31:15;100925.13;;;23.30;43.39
13593;BME280;6867;50.998;4.250;2023-05-01T10:33:42;100905.88;;;23.06;43.44
13593;BME280;6867;50.998;4.250;2023-05-01T10:36:13;100934.44;;;23.00;44.01
13593;BME280;6867;50.998;4.250;2023-05-01T10:38:43;100939.91;;;23.00;43.91
13593;BME280;6867;50.998;4.250;2023-05-01T10:41:13;100928.56;;;23.70;42.51
13593;BME280;6867;50.998;4.250;2023-05-01T10:43:40;100933.84;;;23.32;43.36
13593;BME280;6867;50.998;4.250;2023-05-01T10:46:26;100948.16;;;23.29;43.64
13593;BME280;6867;50.998;4.250;2023-05-01T10:48:54;100967.38;;;22.45;45.04
13593;BME280;6867;50.998;4.250;2023-05-01T10:51:23;100963.72;;;22.60;44.85
13593;BME280;6867;50.998;4.250;2023-05-01T10:54:25;100937.47;;;22.54;44.13
13593;BME280;6867;50.998;4.250;2023-05-01T10:56:53;100989.25;;;22.90;44.42
13593;BME280;6867;50.998;4.250;2023-05-01T10:59:20;101031.66;;;23.36;45.16
13593;BME280;6867;50.998;4.250;2023-05-01T11:01:47;100952.78;;;23.33;43.43
13593;BME280;6867;50.998;4.250;2023-05-01T11:04:45;100977.59;;;24.00;43.29
13593;BME280;6867;50.998;4.250;2023-05-01T11:07:16;100914.47;;;23.52;42.48
13593;BME280;6867;50.998;4.250;2023-05-01T11:09:45;100934.88;;;23.12;42.96
13593;BME280;6867;50.998;4.250;2023-05-01T11:12:14;100900.75;;;22.60;42.93
13593;BME280;6867;50.998;4.250;2023-05-01T11:15:00;100958.06;;;22.85;43.84
13593;BME280;6867;50.998;4.250;2023-05-01T11:17:44;100899.75;;;22.46;42.86
13593;BME280;6867;50.998;4.250;2023-05-01T11:20:12;100902.66;;;22.15;43.16
13593;BME280;6867;50.998;4.250;2023-05-01T11:22:58;100909.94;;;22.35;43.04
13593;BME280;6867;50.998;4.250;2023-05-01T11:25:28;100899.34;;;22.23;42.96
13593;BME280;6867;50.998;4.250;2023-05-01T11:27:58;100946.16;;;22.11;43.99
13593;BME280;6867;50.998;4.250;2023-05-01T11:30:25;100910.16;;;22.44;43.00
13593;BME280;6867;50.998;4.250;2023-05-01T11:32:52;100951.03;;;23.14;42.75
13593;BME280;6867;50.998;4.250;2023-05-01T11:35:20;100919.06;;;23.57;41.72
13593;BME280;6867;50.998;4.250;2023-05-01T11:37:47;100851.97;;;23.97;40.07
13593;BME280;6867;50.998;4.250;2023-05-01T11:40:20;100879.34;;;24.21;40.29
13593;BME280;6867;50.998;4.250;2023-05-01T11:42:49;100856.38;;;23.74;40.30
13593;BME280;6867;50.998;4.250;2023-05-01T11:45:17;100870.97;;;24.13;40.32
13593;BME280;6867;50.998;4.250;2023-05-01T11:47:44;100876.38;;;23.51;40.99
13593;BME280;6867;50.998;4.250;2023-05-01T11:50:11;100897.09;;;23.62;41.02
13593;BME280;6867;50.998;4.250;2023-05-01T11:52:45;100882.56;;;23.08;42.05
13593;BME280;6867;50.998;4.250;2023-05-01T11:55:14;100845.34;;;23.31;40.44
13593;BME280;6867;50.998;4.250;2023-05-01T11:57:44;100841.38;;;23.43;40.27
13593;BME280;6867;50.998;4.250;2023-05-01T12:00:14;100828.88;;;22.44;40.96
13593;BME280;6867;50.998;4.250;2023-05-01T12:02:54;100859.59;;;23.04;40.71
13593;BME280;6867;50.998;4.250;2023-05-01T12:05:22;100877.31;;;23.65;40.10
13593;BME280;6867;50.998;4.250;2023-05-01T12:07:49;100834.38;;;23.55;39.65
13593;BME280;6867;50.998;4.250;2023-05-01T12:10:17;100826.88;;;23.61;39.25
13593;BME280;6867;50.998;4.250;2023-05-01T12:12:44;100871.97;;;23.98;39.85
13593;BME280;6867;50.998;4.250;2023-05-01T12:15:11;100846.69;;;23.82;39.38
13593;BME280;6867;50.998;4.250;2023-05-01T12:17:39;100826.72;;;23.52;39.34
13593;BME280;6867;50.998;4.250;2023-05-01T12:20:10;100856.44;;;23.45;40.06
13593;BME280;6867;50.998;4.250;2023-05-01T12:22:47;100858.34;;;22.92;40.41
13593;BME280;6867;50.998;4.250;2023-05-01T12:25:15;100862.97;;;22.62;41.11
13593;BME280;6867;50.998;4.250;2023-05-01T12:27:42;100901.84;;;22.98;41.04
13593;BME280;6867;50.998;4.250;2023-05-01T12:30:10;100877.50;;;22.57;41.33
13593;BME280;6867;50.998;4.250;2023-05-01T12:32:37;100861.50;;;22.35;40.95
13593;BME280;6867;50.998;4.250;2023-05-01T12:35:13;100886.84;;;23.20;40.31
13593;BME280;6867;50.998;4.250;2023-05-01T12:37:40;100931.28;;;23.41;41.08
13593;BME280;6867;50.998;4.250;2023-05-01T12:40:12;100867.06;;;23.76;39.38
13593;BME280;6867;50.998;4.250;2023-05-01T12:42:39;100889.88;;;24.14;39.37
13593;BME280;6867;50.998;4.250;2023-05-01T12:45:07;100801.38;;;23.42;38.33
13593;BME280;6867;50.998;4.250;2023-05-01T12:47:39;100825.31;;;23.07;39.17
13593;BME280;6867;50.998;4.250;2023-05-01T12:50:06;100795.16;;;22.83;39.25
13593;BME280;6867;50.998;4.250;2023-05-01T12:52:35;100852.44;;;23.32;39.61
13593;BME280;6867;50.998;4.250;2023-05-01T12:55:03;100864.69;;;23.64;39.22
13593;BME280;6867;50.998;4.250;2023-05-01T12:57:30;100819.50;;;22.84;39.42
13593;BME280;6867;50.998;4.250;2023-05-01T12:59:59;100796.94;;;22.98;38.35
13593;BME280;6867;50.998;4.250;2023-05-01T13:02:29;100834.78;;;22.56;39.84
13593;BME280;6867;50.998;4.250;2023-05-01T13:05:04;100843.53;;;23.46;38.90
13593;BME280;6867;50.998;4.250;2023-05-01T13:07:31;100845.81;;;23.39;39.15